Terminal Aerodrome Forecast
Issued by NWS Newport/Morehead City, NC

Home | Current Version | Previous Version | Text Only | Print | Product List | Glossary On
Versions: 1 2 3 4 5 6 7 8 9 10 11 12 13 14 15 16 17
126
FTUS42 KMHX 141128
TAFEWN
TAF
KEWN 141128Z 1412/1512 03011KT P6SM SCT250
     FM142300 05005KT P6SM SCT040 BKN100
     FM150900 04007KT P6SM BKN010=

USA.gov is the U.S. government's official web portal to all federal, state and local government web resources and services.